Stockton, CA (95212)

11:34 AM PST on November 27, 2014 (GMT -0800)
Morada | Change Station
CLOSE
Current Station
Personal Weather Station
Location: Stockton, CA
Elevation: 39 ft
Nearby Weather Stations

Elev 39 ft 38.05 °N, 121.25 °W | Updated 1 second ago

Clear
Clear
62.4 °F
Feels Like 62.4 °F
N
0.0
Wind Variable Wind from NNW
Gusts 0.0 mph

Today
High -- | Low -- °F
--% Chance of Precip.
Yesterday
High -- | Low -- °F
Precip. -- in
6:58 AM 4:46 PM
Waxing Crescent, 32% visible
Pressure 30.18 in
Visibility 4.0 miles
Clouds Clear
Dew Point 52 °F
Humidity 69%
Rainfall 0.00 in
Snow Depth Not available.
UV 1.4 out of 12
Pollen 1.90 out of 12
Air Quality Not available.
Flu Activity Not available.
METAR KSCK 271855Z VRB03KT 4SM HZ CLR 16/09 A3018 RMK AO2 SLP219 T01560094

More Conditions Fewer Conditions

Pressure 30.18 in
Visibility 4.0 miles
Clouds Clear
Dew Point 52 °F
Humidity 69%
Rainfall 0.00 in
Snow Depth Not available.
UV 1.4 out of 12
Pollen 1.90 out of 12
Air Quality Not available.
Flu Activity Not available.
METAR KSCK 271855Z VRB03KT 4SM HZ CLR 16/09 A3018 RMK AO2 SLP219 T01560094

More Conditions Fewer Conditions

10-Day Weather Forecast

Almanac

Astronomy

Nov. 27, 2014 Rise Set
Actual Time
Civil Twilight
Nautical Twilight
Astronomical Twilight
Moon
Length of Visible Light
Length of Day
Tomorrow will be .
, % of the Moon is Illuminated

Today's Extremes

State Highs State Lows

Community

WunderPhotos

Upload Photos

1,774,092 photos uploaded!

WunderBlogs® & News

Nearby

Air Quality

  Air Quality AQ Index Pollutant
Not available.

Snow Depth

Station Depth Elevation

Earthquake Activity

City Distance Mag. Time & Date
Minimum magnitude displayed is 2.5.

Coastal Water Temperatures

Place Temperature

Nearby Weather Stations